createdAt,value
2023-12-07T00:01:52.987Z,100323.44
2023-12-07T00:04:54.787Z,100327.84
2023-12-07T00:07:56.548Z,100327.88
2023-12-07T00:10:58.425Z,100327.94
2023-12-07T00:14:00.231Z,100329.72
2023-12-07T00:17:02.111Z,100326.22
2023-12-07T00:20:05.376Z,100333.28
2023-12-07T00:23:07.395Z,100340.31
2023-12-07T00:26:09.368Z,100332.37
2023-12-07T00:29:11.233Z,100337.66
2023-12-07T00:32:13.132Z,100344.72
2023-12-07T00:35:15.982Z,100351.03
2023-12-07T00:38:17.840Z,100347.44
2023-12-07T00:41:19.685Z,100354.47
2023-12-07T00:44:21.588Z,100352.72
2023-12-07T00:47:23.489Z,100352.69
2023-12-07T00:50:25.424Z,100354.41
2023-12-07T00:53:27.267Z,100361.41
2023-12-07T00:56:29.072Z,100362.25
2023-12-07T00:59:34.871Z,100359.69
2023-12-07T01:02:36.787Z,100357.97
2023-12-07T01:05:38.763Z,100359.75
2023-12-07T01:08:40.640Z,100359.75
2023-12-07T01:11:42.362Z,100359.81
2023-12-07T01:14:44.195Z,100359.84
2023-12-07T01:17:46.025Z,100362.56
2023-12-07T01:20:49.130Z,100353.78
2023-12-07T01:23:54.721Z,100354.66
2023-12-07T01:27:00.991Z,100359.00
2023-12-07T01:30:02.875Z,100356.44
2023-12-07T01:33:05.130Z,100366.03
2023-12-07T01:36:07.197Z,100357.28
2023-12-07T01:39:12.257Z,100361.63
2023-12-07T01:42:14.443Z,100365.09
2023-12-07T01:45:16.313Z,100362.50
2023-12-07T01:48:18.164Z,100351.03
2023-12-07T01:51:20.352Z,100353.62
2023-12-07T01:54:22.575Z,100361.47
2023-12-07T01:57:25.966Z,100352.63
2023-12-07T02:00:28.789Z,100356.97
2023-12-07T02:03:31.541Z,100362.25
2023-12-07T02:06:33.619Z,100351.63
2023-12-07T02:09:35.425Z,100356.09
2023-12-07T02:12:37.425Z,100356.09
2023-12-07T02:15:39.409Z,100358.78
2023-12-07T02:19:07.737Z,100354.41
2023-12-07T02:22:18.603Z,100356.19
2023-12-07T02:25:36.493Z,100355.34
2023-12-07T02:28:38.527Z,100358.13
2023-12-07T02:31:40.393Z,100355.50
2023-12-07T02:34:42.334Z,100360.84
2023-12-07T02:37:49.708Z,100355.59
2023-12-07T02:40:51.954Z,100307.94
2023-12-07T02:43:54.231Z,100355.66
2023-12-07T02:46:56.068Z,100353.88
2023-12-07T02:49:58.029Z,100357.47
2023-12-07T02:52:59.905Z,100360.06
2023-12-07T02:56:01.790Z,100360.94
2023-12-07T02:59:03.706Z,100361.84
2023-12-07T03:02:05.637Z,100366.28
2023-12-07T03:05:08.049Z,100373.34
2023-12-07T03:08:09.893Z,100373.28
2023-12-07T03:11:11.724Z,100372.41
2023-12-07T03:14:13.512Z,100373.34
2023-12-07T03:17:15.267Z,100377.75
2023-12-07T03:20:18.149Z,100378.63
2023-12-07T03:23:19.916Z,100380.38
2023-12-07T03:26:22.022Z,100378.63
2023-12-07T03:29:23.752Z,100381.25
2023-12-07T03:32:26.024Z,100388.31
2023-12-07T03:35:27.937Z,100386.63
2023-12-07T03:38:32.289Z,100384.84
2023-12-07T03:41:34.059Z,100391.03
2023-12-07T03:44:35.787Z,100388.31
2023-12-07T03:47:37.557Z,100393.66
2023-12-07T03:50:39.345Z,100397.09
2023-12-07T03:53:41.118Z,100397.94
2023-12-07T03:56:43.571Z,100393.56
2023-12-07T03:59:46.913Z,100394.31
2023-12-07T04:02:48.774Z,100397.78
2023-12-07T04:05:50.613Z,100403.13
2023-12-07T04:08:52.440Z,100407.41
2023-12-07T04:11:54.286Z,100403.84
2023-12-07T04:14:56.067Z,100414.34
2023-12-07T04:17:58.012Z,100406.41
2023-12-07T04:20:59.901Z,100415.19
2023-12-07T04:24:01.685Z,100414.31
2023-12-07T04:27:03.499Z,100413.47
2023-12-07T04:30:06.025Z,100413.47
2023-12-07T04:33:08.028Z,100416.97
2023-12-07T04:36:10.134Z,100412.59
2023-12-07T04:39:12.169Z,100417.81
2023-12-07T04:42:14.016Z,100419.69
2023-12-07T04:45:15.827Z,100424.09
2023-12-07T04:48:17.775Z,100430.19
2023-12-07T04:51:19.675Z,100425.88
2023-12-07T04:54:21.642Z,100426.69
2023-12-07T04:57:23.421Z,100427.53
2023-12-07T05:00:25.269Z,100434.56
2023-12-07T05:03:27.664Z,100440.72
2023-12-07T05:06:29.579Z,100439.84
2023-12-07T05:09:32.285Z,100443.38
2023-12-07T05:12:34.249Z,100453.06
2023-12-07T05:15:36.042Z,100446.00
2023-12-07T05:18:37.998Z,100451.28
2023-12-07T05:21:39.863Z,100433.81
2023-12-07T05:24:41.676Z,100453.06
2023-12-07T05:27:43.477Z,100460.09
2023-12-07T05:30:47.757Z,100461.81
2023-12-07T05:33:49.885Z,100461.81
2023-12-07T05:36:51.851Z,100465.38
2023-12-07T05:39:53.696Z,100469.75
2023-12-07T05:42:55.508Z,100466.25
2023-12-07T05:45:57.286Z,100463.63
2023-12-07T05:48:59.321Z,100470.69
2023-12-07T05:52:01.268Z,100466.25
2023-12-07T05:55:03.582Z,100471.44
2023-12-07T05:58:05.517Z,100476.66
2023-12-07T06:01:09.109Z,100478.38
2023-12-07T06:04:11.636Z,100485.38
2023-12-07T06:07:13.650Z,100484.50
2023-12-07T06:10:15.598Z,100494.22
2023-12-07T06:13:17.584Z,100494.16
2023-12-07T06:16:19.995Z,100493.34
2023-12-07T06:19:22.372Z,100492.44
2023-12-07T06:22:24.652Z,100492.41
2023-12-07T06:25:26.838Z,100489.72
2023-12-07T06:28:29.141Z,100482.94
2023-12-07T06:31:30.992Z,100504.81
2023-12-07T06:34:32.978Z,100502.13
2023-12-07T06:37:35.379Z,100488.16
2023-12-07T06:40:37.281Z,100497.69
2023-12-07T06:43:39.158Z,100503.97
2023-12-07T06:46:41.388Z,100508.34
2023-12-07T06:49:50.451Z,100517.19
2023-12-07T06:52:54.855Z,100513.75
2023-12-07T06:55:57.015Z,100518.09
2023-12-07T06:58:58.831Z,100530.44
2023-12-07T07:02:00.915Z,100528.94
2023-12-07T07:05:02.984Z,100528.06
2023-12-07T07:08:05.094Z,100536.97
2023-12-07T07:11:18.958Z,100533.53
2023-12-07T07:14:20.770Z,100545.94
2023-12-07T07:17:22.994Z,100544.09
2023-12-07T07:20:25.076Z,100552.00
2023-12-07T07:23:27.168Z,100540.47
2023-12-07T07:26:29.038Z,100541.25
2023-12-07T07:29:31.022Z,100553.53
2023-12-07T07:32:33.010Z,100550.75
2023-12-07T07:35:35.194Z,100547.12
2023-12-07T07:38:37.032Z,100556.69
2023-12-07T07:41:38.884Z,100555.69
2023-12-07T07:44:40.682Z,100559.13
2023-12-07T07:47:42.829Z,100557.28
2023-12-07T07:50:44.790Z,100556.41
2023-12-07T07:53:46.758Z,100564.25
2023-12-07T07:56:48.651Z,100561.63
2023-12-07T07:59:50.877Z,100566.25
2023-12-07T08:02:53.053Z,100565.34
2023-12-07T08:05:54.876Z,100558.34
2023-12-07T08:08:56.647Z,100577.69
2023-12-07T08:11:58.425Z,100581.25
2023-12-07T08:15:00.377Z,100572.53
2023-12-07T08:18:03.225Z,100584.06
2023-12-07T08:21:05.547Z,100585.97
2023-12-07T08:24:07.947Z,100583.28
2023-12-07T08:27:09.764Z,100580.66
2023-12-07T08:30:12.096Z,100547.59
2023-12-07T08:33:15.646Z,100583.88
2023-12-07T08:36:17.961Z,100578.53
2023-12-07T08:39:19.914Z,100586.37
2023-12-07T08:42:21.759Z,100588.03
2023-12-07T08:45:24.847Z,100584.59
2023-12-07T08:48:26.946Z,100578.31
2023-12-07T08:51:29.923Z,100576.53
2023-12-07T08:54:31.811Z,100574.78
2023-12-07T08:57:33.832Z,100581.75
2023-12-07T09:00:35.673Z,100578.19
2023-12-07T09:03:38.536Z,100578.34
2023-12-07T09:06:40.514Z,100585.13
2023-12-07T09:09:47.972Z,100580.66
2023-12-07T09:12:49.970Z,100580.81
2023-12-07T09:15:52.029Z,100584.19
2023-12-07T09:18:53.959Z,100589.37
2023-12-07T09:21:56.001Z,100583.13
2023-12-07T09:24:57.900Z,100577.78
2023-12-07T09:28:00.883Z,100586.53
2023-12-07T09:31:02.826Z,100580.47
2023-12-07T09:34:12.313Z,100579.53
2023-12-07T09:38:06.153Z,100576.75
2023-12-07T09:41:08.016Z,100572.28
2023-12-07T09:44:09.923Z,100572.19
2023-12-07T09:47:12.988Z,100573.03
2023-12-07T09:50:16.936Z,100568.53
2023-12-07T09:53:18.750Z,100563.06
2023-12-07T09:56:20.526Z,100565.66
2023-12-07T09:59:22.329Z,100570.88
2023-12-07T10:02:24.277Z,100565.66
2023-12-07T10:05:26.396Z,100576.09
2023-12-07T10:08:33.222Z,100579.87
2023-12-07T10:11:35.443Z,100571.41
2023-12-07T10:14:37.282Z,100572.25
2023-12-07T10:18:05.275Z,100569.75
2023-12-07T10:21:09.134Z,100571.41
2023-12-07T10:24:11.739Z,100571.47
2023-12-07T10:27:13.599Z,100576.69
2023-12-07T10:30:15.529Z,100576.75
2023-12-07T10:33:17.463Z,100585.75
2023-12-07T10:36:20.447Z,100576.19
2023-12-07T10:39:29.070Z,100581.41
2023-12-07T10:42:37.026Z,100577.03
2023-12-07T10:45:39.449Z,100579.47
2023-12-07T10:48:42.737Z,100580.19
2023-12-07T10:52:02.433Z,100584.47
2023-12-07T10:55:08.358Z,100581.75
2023-12-07T10:58:11.527Z,100577.31
2023-12-07T11:01:15.756Z,100578.03
2023-12-07T11:04:18.261Z,100576.41
2023-12-07T11:07:22.100Z,100575.47
2023-12-07T11:10:34.106Z,100586.19
2023-12-07T11:13:38.708Z,100583.53
2023-12-07T11:16:47.751Z,100588.03
2023-12-07T11:19:49.774Z,100594.19
2023-12-07T11:22:51.528Z,100587.97
2023-12-07T11:25:54.138Z,100594.88
2023-12-07T11:28:56.365Z,100590.25
2023-12-07T11:32:16.522Z,100593.75
2023-12-07T11:35:21.743Z,100591.94
2023-12-07T11:38:23.615Z,100596.19
2023-12-07T11:41:25.479Z,100596.19
2023-12-07T11:44:36.222Z,100599.66
2023-12-07T11:47:38.187Z,100596.06
2023-12-07T11:51:13.082Z,100587.34
2023-12-07T11:54:16.257Z,100589.87
2023-12-07T11:57:18.852Z,100598.84
2023-12-07T12:00:20.900Z,100591.50
2023-12-07T12:03:22.908Z,100596.78
2023-12-07T12:06:27.215Z,100597.63
2023-12-07T12:09:32.841Z,100593.19
2023-12-07T12:12:35.325Z,100586.34
2023-12-07T12:15:38.048Z,100602.97
2023-12-07T12:18:40.198Z,100594.13
2023-12-07T12:21:42.073Z,100598.41
2023-12-07T12:24:44.107Z,100609.84
2023-12-07T12:27:45.966Z,100605.56
2023-12-07T12:30:47.960Z,100602.69
2023-12-07T12:33:51.028Z,100601.72
2023-12-07T12:36:57.339Z,100602.87
2023-12-07T12:40:04.198Z,100602.66
2023-12-07T12:43:07.120Z,100614.09
2023-12-07T12:46:09.191Z,100614.09
2023-12-07T12:49:11.216Z,100622.03
2023-12-07T12:52:17.530Z,100627.31
2023-12-07T12:55:19.486Z,100626.31
2023-12-07T12:58:23.638Z,100626.28
2023-12-07T13:01:25.767Z,100624.59
2023-12-07T13:04:28.459Z,100629.97
2023-12-07T13:07:30.661Z,100630.88
2023-12-07T13:10:32.964Z,100633.69
2023-12-07T13:13:34.853Z,100640.69
2023-12-07T13:16:37.226Z,100632.81
2023-12-07T13:19:39.263Z,100637.31
2023-12-07T13:22:47.411Z,100640.84
2023-12-07T13:25:50.401Z,100639.06
2023-12-07T13:28:54.268Z,100647.84
2023-12-07T13:31:56.264Z,100649.72
2023-12-07T13:34:58.326Z,100649.78
2023-12-07T13:38:00.508Z,100644.50
2023-12-07T13:41:03.139Z,100657.09
2023-12-07T13:44:06.208Z,100660.63
2023-12-07T13:47:09.302Z,100659.72
2023-12-07T13:50:11.788Z,100663.34
2023-12-07T13:53:13.778Z,100664.44
2023-12-07T13:56:19.634Z,100668.81
2023-12-07T13:59:25.235Z,100669.78
2023-12-07T14:02:27.494Z,100674.09
2023-12-07T14:05:29.456Z,100676.66
2023-12-07T14:08:32.459Z,100682.78
2023-12-07T14:11:34.364Z,100686.34
2023-12-07T14:14:36.267Z,100682.78
2023-12-07T14:17:47.503Z,100693.34
2023-12-07T14:21:07.509Z,100694.28
2023-12-07T14:24:15.892Z,100696.00
2023-12-07T14:27:17.703Z,100705.69
2023-12-07T14:30:19.520Z,100713.62
2023-12-07T14:33:21.720Z,100713.78
2023-12-07T14:36:23.665Z,100713.84
2023-12-07T14:39:25.769Z,100728.06
2023-12-07T14:42:27.904Z,100727.19
2023-12-07T14:45:29.708Z,100734.19
2023-12-07T14:48:31.659Z,100734.25
2023-12-07T14:51:34.041Z,100743.03
2023-12-07T14:54:39.161Z,100743.81
2023-12-07T14:57:40.984Z,100738.53
2023-12-07T15:00:45.294Z,100747.44
2023-12-07T15:03:47.648Z,100762.31
2023-12-07T15:06:49.748Z,100756.03
2023-12-07T15:09:53.184Z,100752.56
2023-12-07T15:12:55.123Z,100754.31
2023-12-07T15:15:57.027Z,100753.47
2023-12-07T15:18:59.013Z,100764.84
2023-12-07T15:22:01.234Z,100764.91
2023-12-07T15:25:03.935Z,100767.53
2023-12-07T15:28:06.172Z,100772.03
2023-12-07T15:31:08.173Z,100773.75
2023-12-07T15:34:18.918Z,100779.91
2023-12-07T15:37:26.996Z,100779.09
2023-12-07T15:40:28.975Z,100781.72
2023-12-07T15:43:31.951Z,100782.66
2023-12-07T15:46:33.795Z,100783.56
2023-12-07T15:49:36.371Z,100788.72
2023-12-07T15:52:38.341Z,100786.06
2023-12-07T15:55:40.273Z,100794.03
2023-12-07T15:58:42.806Z,100794.94
2023-12-07T16:01:44.693Z,100795.00
2023-12-07T16:04:49.585Z,100798.63
2023-12-07T16:07:51.499Z,100810.06
2023-12-07T16:10:53.691Z,100805.63
2023-12-07T16:13:56.281Z,100811.75
2023-12-07T16:17:03.467Z,100811.72
2023-12-07T16:20:12.052Z,100814.41
2023-12-07T16:23:15.884Z,100817.88
2023-12-07T16:26:19.523Z,100814.53
2023-12-07T16:29:23.181Z,100822.50
2023-12-07T16:32:28.328Z,100823.44
2023-12-07T16:35:30.386Z,100827.13
2023-12-07T16:38:41.132Z,100825.50
2023-12-07T16:41:49.000Z,100829.00
2023-12-07T16:44:57.151Z,100836.94
2023-12-07T16:47:59.109Z,100836.13
2023-12-07T16:51:01.073Z,100844.78
2023-12-07T16:54:02.955Z,100838.47
2023-12-07T16:57:05.005Z,100842.75
2023-12-07T17:00:07.646Z,100848.88
2023-12-07T17:03:10.150Z,100853.22
2023-12-07T17:06:13.264Z,100854.97
2023-12-07T17:09:16.923Z,100853.16
2023-12-07T17:12:18.922Z,100861.16
2023-12-07T17:15:20.705Z,100855.03
2023-12-07T17:18:22.667Z,100850.59
2023-12-07T17:21:25.409Z,100854.03
2023-12-07T17:24:27.350Z,100845.25
2023-12-07T17:27:29.177Z,100849.66
2023-12-07T17:30:30.964Z,100858.47
2023-12-07T17:33:32.976Z,100856.69
2023-12-07T17:36:34.907Z,100865.53
2023-12-07T17:39:36.725Z,100871.66
2023-12-07T17:42:38.584Z,100859.31
2023-12-07T17:45:41.189Z,100859.31
2023-12-07T17:48:43.253Z,100860.19
2023-12-07T17:51:45.121Z,100866.38
2023-12-07T17:54:47.273Z,100863.75
2023-12-07T17:57:50.504Z,100868.16
2023-12-07T18:00:52.693Z,100869.94
2023-12-07T18:03:57.514Z,100875.22
2023-12-07T18:07:04.312Z,100870.84
2023-12-07T18:10:08.035Z,100877.03
2023-12-07T18:13:10.432Z,100873.50
2023-12-07T18:16:12.531Z,100872.66
2023-12-07T18:19:18.576Z,100877.91
2023-12-07T18:22:20.921Z,100883.19
2023-12-07T18:25:22.801Z,100886.72
2023-12-07T18:28:25.359Z,100888.50
2023-12-07T18:31:27.422Z,100898.22
2023-12-07T18:34:29.526Z,100892.91
2023-12-07T18:37:31.601Z,100903.47
2023-12-07T18:40:33.609Z,100898.13
2023-12-07T18:43:35.705Z,100891.94
2023-12-07T18:46:38.035Z,100893.66
2023-12-07T18:49:40.364Z,100890.09
2023-12-07T18:52:42.384Z,100896.25
2023-12-07T18:55:44.516Z,100890.09
2023-12-07T18:58:46.621Z,100894.41
2023-12-07T19:01:50.046Z,100888.25
2023-12-07T19:04:52.293Z,100885.69
2023-12-07T19:07:54.386Z,100896.25
2023-12-07T19:10:56.247Z,100894.47
2023-12-07T19:13:58.133Z,100887.53
2023-12-07T19:17:00.217Z,100888.37
2023-12-07T19:20:02.503Z,100881.31
2023-12-07T19:23:04.498Z,100890.28
2023-12-07T19:26:10.969Z,100896.41
2023-12-07T19:29:14.422Z,100894.63
2023-12-07T19:32:16.390Z,100893.78
2023-12-07T19:35:18.526Z,100892.06
2023-12-07T19:38:20.328Z,100896.47
2023-12-07T19:41:22.214Z,100904.41
2023-12-07T19:44:24.198Z,100899.16
2023-12-07T19:47:27.112Z,100906.19
2023-12-07T19:50:29.720Z,100910.66
2023-12-07T19:53:31.741Z,100903.66
2023-12-07T19:56:34.419Z,100902.78
2023-12-07T19:59:36.376Z,100903.69
2023-12-07T20:02:38.488Z,100908.97
2023-12-07T20:05:40.373Z,100899.28
2023-12-07T20:08:42.361Z,100903.78
2023-12-07T20:11:44.771Z,100902.94
2023-12-07T20:14:46.799Z,100903.94
2023-12-07T20:17:49.278Z,100917.94
2023-12-07T20:20:51.552Z,100911.72
2023-12-07T20:23:54.378Z,100907.31
2023-12-07T20:26:57.489Z,100918.78
2023-12-07T20:30:00.887Z,100922.34
2023-12-07T20:33:03.326Z,100923.16
2023-12-07T20:36:06.471Z,100917.09
2023-12-07T20:39:08.953Z,100922.38
2023-12-07T20:42:11.134Z,100930.31
2023-12-07T20:45:15.087Z,100930.31
2023-12-07T20:48:17.222Z,100930.25
2023-12-07T20:51:19.901Z,100932.81
2023-12-07T20:54:22.283Z,100926.72
2023-12-07T20:57:24.660Z,100944.22
2023-12-07T21:00:26.698Z,100938.13
2023-12-07T21:03:28.570Z,100951.31
2023-12-07T21:06:30.595Z,100954.84
2023-12-07T21:09:32.455Z,100955.75
2023-12-07T21:12:34.384Z,100953.13
2023-12-07T21:15:36.503Z,100958.44
2023-12-07T21:18:38.555Z,100964.62
2023-12-07T21:21:40.497Z,100961.03
2023-12-07T21:24:42.286Z,100955.69
2023-12-07T21:27:44.964Z,100957.38
2023-12-07T21:30:46.888Z,100969.75
2023-12-07T21:33:49.657Z,100963.66
2023-12-07T21:36:52.156Z,100965.44
2023-12-07T21:39:56.030Z,100963.66
2023-12-07T21:42:58.294Z,100968.09
2023-12-07T21:46:00.132Z,100969.06
2023-12-07T21:49:02.058Z,100980.50
2023-12-07T21:52:04.935Z,100976.97
2023-12-07T21:55:07.202Z,100971.66
2023-12-07T21:58:09.120Z,100977.78
2023-12-07T22:01:16.286Z,100962.03
2023-12-07T22:04:18.274Z,100966.47
2023-12-07T22:07:20.062Z,100969.13
2023-12-07T22:10:28.723Z,100978.78
2023-12-07T22:13:31.642Z,100972.69
2023-12-07T22:16:33.508Z,100970.91
2023-12-07T22:19:35.513Z,100971.75
2023-12-07T22:22:37.795Z,100971.75
2023-12-07T22:25:39.712Z,100971.75
2023-12-07T22:28:41.837Z,100969.13
2023-12-07T22:31:46.548Z,100972.66
2023-12-07T22:34:48.524Z,100944.72
2023-12-07T22:37:50.552Z,100962.19
2023-12-07T22:40:52.385Z,100959.63
2023-12-07T22:43:54.783Z,100952.81
2023-12-07T22:46:56.923Z,100940.47
2023-12-07T22:49:58.677Z,100945.78
2023-12-07T22:53:01.173Z,100944.12
2023-12-07T22:56:03.164Z,100946.75
2023-12-07T22:59:04.992Z,100948.50
2023-12-07T23:02:06.820Z,100951.19
2023-12-07T23:05:08.942Z,100948.66
2023-12-07T23:08:10.767Z,100942.47
2023-12-07T23:11:13.818Z,100944.09
2023-12-07T23:14:16.759Z,100946.66
2023-12-07T23:17:18.603Z,100949.28
2023-12-07T23:20:20.379Z,100950.94
2023-12-07T23:23:25.221Z,100944.72
2023-12-07T23:26:26.989Z,100943.78
2023-12-07T23:29:28.863Z,100942.06
2023-12-07T23:32:30.875Z,100936.78
2023-12-07T23:35:33.305Z,100932.44
2023-12-07T23:38:35.959Z,100928.16
2023-12-07T23:41:37.728Z,100926.50
2023-12-07T23:44:39.546Z,100917.72
2023-12-07T23:47:41.503Z,100921.16
2023-12-07T23:50:43.558Z,100914.91
2023-12-07T23:53:45.498Z,100914.03
2023-12-07T23:56:47.409Z,100908.72
2023-12-07T23:59:49.344Z,100916.62
